Gassoway, Louisiana
Current Conditions -  °F | °C
As of 11:53 PM on Wednesday 26 Nov 2014 (Local Time) from KTVR Reporting Station
Clear Clear  
Wind Chill: 44°   Ceiling: Unl
Heat Index: 44°   Visibility: 10mi
Dew Point: 34°   Wind: 3mph
Humidity: 68%   Direction: 260°W
Pressure: 30.28"   Gusts: NA
Location:  32.8408°N, 91.231°W
Report Text: KTVR 270553Z AUTO 26003KT 10SM CLR 07/01 A3028 RMK AO2 SLP259 T00670011 10133 20056 402001022 51019
Loading
Personal Weather Stations






























Interactive Weather Map New forecast layout! Learn more

10-Day Weather Forecast

Advertisements
Track Severe Weather on mobile